WetterOnline ( http://www.wetteronline.de )

Wetter aktuell Rothaargebirge (in 800m)

Aktuelles Wetter: Kahler Asten (841m)

6-stündlich | Neueste Meldungen
Ortszeit Temperatur Wetter
Di, 14.08. 14:00 14.0° C bedeckt
Di, 14.08. 8:00 12.2° C Sprühregen
Di, 14.08. 2:00 12.1° C Nebel
Mo, 13.08. 20:00 14.0° C wolkig
Mo, 13.08. 14:00 13.8° C bewölkt
Mo, 13.08. 8:00 18.0° C bewölkt
Mo, 13.08. 2:00 17.1° C wolkenlos
So, 12.08. 20:00 19.3° C bewölkt
Ortszeit Temperatur Wetter
Di, 14.08. 19:00 16.7° C bewölkt
Di, 14.08. 18:50 16.7° C bewölkt
Di, 14.08. 18:40 16.2° C bedeckt
Di, 14.08. 18:30 15.9° C bewölkt
Di, 14.08. 18:20 15.9° C bewölkt
Di, 14.08. 18:10 15.9° C bedeckt
Di, 14.08. 18:00 15.9° C bedeckt
Di, 14.08. 17:30 15.8° C bewölkt
Di, 14.08. 17:00 16.2° C bewölkt
Di, 14.08. 16:30 16.2° C wolkig
Di, 14.08. 16:00 16.9° C leicht bewölkt
Ortszeit Relative Feuchte Sichtweite
Di, 14.08. 14:00 91% 9 km
Di, 14.08. 8:00 99% <100 m
Di, 14.08. 2:00 99% <100 m
Mo, 13.08. 20:00 95% 13 km
Mo, 13.08. 14:00 97% 7 km
Mo, 13.08. 8:00 48% 70 km
Mo, 13.08. 2:00 48% 70 km
So, 12.08. 20:00 36% 70 km
Ortszeit Relative Feuchte Sichtweite
Di, 14.08. 19:00 70% 30 km
Di, 14.08. 18:50 70% -
Di, 14.08. 18:40 71% -
Di, 14.08. 18:30 73% 30 km
Di, 14.08. 18:20 73% -
Di, 14.08. 18:10 73% -
Di, 14.08. 18:00 74% 35 km
Di, 14.08. 17:30 74% 30 km
Di, 14.08. 17:00 72% 40 km
Di, 14.08. 16:30 71% 27 km
Di, 14.08. 16:00 72% 25 km
Ortszeit Niederschlagsmenge Niederschlagsart
Di, 14.08. 14:00 2 l/m2 in 6 Std. Regen
Di, 14.08. 8:00 0.5 l/m2 in 12 Std. Regen
Di, 14.08. 2:00 0.4 l/m2 in 6 Std. Regen
Mo, 13.08. 20:00 11 l/m2 in 12 Std. Regen
Mo, 13.08. 14:00 5 l/m2 in 6 Std. Regen
Mo, 13.08. 8:00 0.0 l/m2 in 12 Std. -
Mo, 13.08. 2:00 0.0 l/m2 in 6 Std. -
So, 12.08. 20:00 0.0 l/m2 in 12 Std. -
Ortszeit Niederschlagsmenge Niederschlagsart
Di, 14.08. 19:00 0.0 l/m2 in 1 Std. -
Di, 14.08. 18:50 keine Meldung -
Di, 14.08. 18:40 keine Meldung -
Di, 14.08. 18:30 0.0 l/m2 in 1 Std. -
Di, 14.08. 18:20 keine Meldung -
Di, 14.08. 18:10 keine Meldung -
Di, 14.08. 18:00 0.0 l/m2 in 1 Std. -
Di, 14.08. 17:30 0.0 l/m2 in 1 Std. -
Di, 14.08. 17:00 0.0 l/m2 in 1 Std. -
Di, 14.08. 16:30 0.0 l/m2 in 1 Std. -
Di, 14.08. 16:00 0.0 l/m2 in 1 Std. -
Ortszeit Stärke Spitze Richtung
km/h Bft. km/h Grad Sektor
Di, 14.08. 14:00 30 5 54 270° W
Di, 14.08. 8:00 24 4 48 250° W
Di, 14.08. 2:00 22 4 40 250° W
Mo, 13.08. 20:00 19 3 48 250° W
Mo, 13.08. 14:00 28 4 46 190° S
Mo, 13.08. 8:00 20 4 37 190° S
Mo, 13.08. 2:00 25 4 36 200° S
So, 12.08. 20:00 13 3 31 190° S
Ortszeit Stärke Spitze Richtung
km/h Bft. km/h Grad Sektor
Di, 14.08. 19:00 20 4 39 290° W
Di, 14.08. 18:50 20 4 - 290° W
Di, 14.08. 18:40 22 4 - 290° W
Di, 14.08. 18:30 22 4 40 300° NW
Di, 14.08. 18:20 22 4 - 300° NW
Di, 14.08. 18:10 24 4 - 290° W
Di, 14.08. 18:00 22 4 40 280° W
Di, 14.08. 17:30 25 4 40 280° W
Di, 14.08. 17:00 31 5 48 280° W
Di, 14.08. 16:30 30 5 48 280° W
Di, 14.08. 16:00 28 4 50 270° W
Ortszeit Untergrenze Bedeckung Gattung
total tief tief mittel hoch
Di, 14.08. 14:00 120 m 8/8 8/8 - - -
Di, 14.08. 8:00 <30 m 7/8 7/8 - - -
Di, 14.08. 2:00 <30 m 7/8 7/8 - - -
Mo, 13.08. 20:00 270 m 7/8 4/8 - - -
Mo, 13.08. 14:00 30 m 7/8 8/8 - - -
Mo, 13.08. 8:00 1800 m 8/8 5/8 - - -
Mo, 13.08. 2:00 3900 m 0/8 0/8 - - -
So, 12.08. 20:00 6600 m 8/8 6/8 - - -
Ortszeit Bedeckungsgrad in Achtel und Wolkenuntergrenze
Di, 14.08. 19:00 1(690m) 3(840m) 7(1440m)
Di, 14.08. 18:50 1(690m) 3(840m) 7(1440m)
Di, 14.08. 18:40 9 9 9
Di, 14.08. 18:30 3(750m) 4(1080m) 7(1350m)
Di, 14.08. 18:20 3(750m) 4(1080m) 7(1350m)
Di, 14.08. 18:10 3(750m) 6(1170m) 8(1350m)
Di, 14.08. 18:00 4(690m) 5(930m) 8(1230m)
Di, 14.08. 17:30 2(690m) 6(960m) 7(1170m)
Di, 14.08. 17:00 3(690m) 7(870m) 7(1080m)
Di, 14.08. 16:30 4(660m) 5(840m) 6(1050m)
Di, 14.08. 16:00 1(510m) 3(690m) 4(930m)
Ortszeit Stationsdruck (hPa) Tendenz (hPa in 3 Std.)
Di, 14.08. 14:00 917 + 1,3
Di, 14.08. 8:00 914 + 1,2
Di, 14.08. 2:00 913 + 0,9
Mo, 13.08. 20:00 911 + 0,3
Mo, 13.08. 14:00 912 - 0,4
Mo, 13.08. 8:00 912 - 0,9
Mo, 13.08. 2:00 914 - 1,4
So, 12.08. 20:00 916 - 1,2
Ortszeit Stationsdruck (hPa) Tendenz (hPa in 3 Std.)
Di, 14.08. 19:00 918 + 1,3
Di, 14.08. 18:50 918 keine Meldung
Di, 14.08. 18:40 918 keine Meldung
Di, 14.08. 18:30 918 + 1,3
Di, 14.08. 18:20 918 keine Meldung
Di, 14.08. 18:10 918 keine Meldung
Di, 14.08. 18:00 918 + 1,4
Di, 14.08. 17:30 918 + 1,3
Di, 14.08. 17:00 918 + 1,2
Di, 14.08. 16:30 917 + 1,2
Di, 14.08. 16:00 917 + 1,1
Ortszeit Schneehöhe (cm)
Di, 14.08. 14:00 -
Di, 14.08. 8:00 -
Di, 14.08. 2:00 -
Mo, 13.08. 20:00 -
Mo, 13.08. 14:00 -
Mo, 13.08. 8:00 -
Mo, 13.08. 2:00 -
So, 12.08. 20:00 -
Ortszeit Schneehöhe (cm)
Di, 14.08. 19:00 -
Di, 14.08. 18:50 -
Di, 14.08. 18:40 -
Di, 14.08. 18:30 -
Di, 14.08. 18:20 -
Di, 14.08. 18:10 -
Di, 14.08. 18:00 -
Di, 14.08. 17:30 -
Di, 14.08. 17:00 -
Di, 14.08. 16:30 -
Di, 14.08. 16:00 -
Link zu dieser Seite / Seite empfehlen

Das Wetter in ...